Dongara, Australia
Current Conditions -  °F | °C
As of 5:30 PM on Thursday 23 Oct 2014 (Local Time) from YGEL Reporting Station
Few Clouds Few Clouds  
Wind Chill: 70°   Ceiling: Unl
Heat Index: 70°   Visibility: 6mi
Dew Point: 55°   Wind: 13mph
Humidity: 60%   Direction: 180°S
Pressure: 30"   Gusts: NA
Location:  29.25°S, 114.93°E
Report Text: YGEL 230930Z 18011KT 9999 FEW025 21/13 Q1016
Loading
Personal Weather Stations






























Interactive Weather Map
Tropical Storm Tracking
New forecast layout! Learn more

10-Day Weather Forecast

Advertisements
Track Severe Weather on mobile